Time;durP1;ratioP1;P1;durP2;ratioP2;P2;SDS_P1;SDS_P2;PMS_P1;PMS_P2;Temp;Humidity;BMP_temperature;BMP_pressure;BME280_temperature;BME280_humidity;BME280_pressure;Samples;Min_cycle;Max_cycle;Signal;HPM_P1;HPM_P2
2022/08/26 00:00:18;;;;;;;2.42;2.22;;;16.90;1.40;;;18.65;100.00;95160.97;619248;222;31928;-71
2022/08/26 00:03:00;;;;;;;5.05;2.70;;;16.80;1.40;;;18.59;100.00;95158.67;646627;216;42196;-72
2022/08/26 00:05:45;;;;;;;2.70;2.20;;;16.80;1.40;;;18.62;100.00;95158.03;645957;213;31904;-71
2022/08/26 00:08:26;;;;;;;3.95;3.10;;;16.90;1.40;;;18.72;100.00;95153.86;647347;216;31553;-71
2022/08/26 00:11:11;;;;;;;2.72;2.50;;;17.10;1.40;;;18.64;100.00;95151.66;620169;225;31887;-71
2022/08/26 00:13:54;;;;;;;3.60;2.70;;;17.10;1.40;;;18.61;100.00;95148.39;646678;216;31520;-71
2022/08/26 00:16:35;;;;;;;2.53;1.80;;;17.10;1.40;;;18.60;100.00;95146.75;646781;216;31571;-71
2022/08/26 00:19:17;;;;;;;5.10;2.55;;;17.10;1.40;;;18.62;100.00;95150.49;645601;216;42771;-72
2022/08/26 00:21:59;;;;;;;3.43;2.50;;;17.10;1.40;;;18.64;100.00;95146.94;645900;216;34242;-71
2022/08/26 00:24:41;;;;;;;5.68;3.60;;;17.10;1.40;;;18.58;100.00;95143.77;647907;216;31576;-70
2022/08/26 00:29:57;;;;;;;3.47;2.65;;;16.90;1.40;;;18.61;100.00;95151.24;647217;216;31828;-71
2022/08/26 00:32:43;;;;;;;3.62;2.90;;;16.80;1.40;;;18.58;100.00;95151.92;645644;212;31580;-71
2022/08/26 00:35:51;;;;;;;4.30;3.30;;;16.80;1.40;;;18.58;100.00;95151.88;646260;212;31603;-73
2022/08/26 00:38:36;;;;;;;2.10;1.85;;;16.70;1.40;;;18.52;100.00;95152.28;647109;216;31630;-72
2022/08/26 00:41:18;;;;;;;5.90;2.40;;;16.70;1.40;;;18.48;100.00;95156.00;647089;216;31518;-71
2022/08/26 00:44:00;;;;;;;4.50;2.17;;;16.70;1.40;;;18.51;100.00;95153.48;646943;216;31539;-71
2022/08/26 00:46:43;;;;;;;4.72;2.37;;;16.60;1.40;;;18.42;100.00;95154.21;647550;216;32684;-72
2022/08/26 00:49:28;;;;;;;2.50;2.08;;;16.60;1.40;;;18.31;100.00;95146.56;647436;216;31620;-74
2022/08/26 00:52:10;;;;;;;4.53;1.75;;;16.60;1.40;;;18.28;100.00;95151.38;645494;216;31714;-71
2022/08/26 00:54:56;;;;;;;3.87;2.40;;;16.50;1.40;;;18.20;100.00;95149.98;647819;216;31531;-71
2022/08/26 00:57:37;;;;;;;3.00;2.30;;;16.40;1.40;;;18.24;100.00;95151.39;645309;216;31529;-71
2022/08/26 01:00:20;;;;;;;3.60;3.15;;;16.50;1.40;;;18.21;100.00;95151.41;646878;216;31985;-71
2022/08/26 01:03:01;;;;;;;2.20;2.03;;;16.50;1.40;;;18.20;100.00;95149.41;646871;216;31556;-71
2022/08/26 01:05:43;;;;;;;3.50;2.70;;;16.60;1.40;;;18.13;100.00;95151.11;647155;212;32130;-70
2022/08/26 01:08:30;;;;;;;2.40;1.87;;;16.60;1.40;;;18.14;100.00;95151.14;644614;216;31574;-71
2022/08/26 01:11:11;;;;;;;3.25;2.50;;;16.70;1.40;;;18.08;100.00;95148.28;647088;216;31644;-71
2022/08/26 01:13:56;;;;;;;2.95;2.50;;;16.50;1.40;;;18.00;100.00;95149.88;645772;216;31524;-71
2022/08/26 01:16:38;;;;;;;4.55;2.87;;;16.40;1.40;;;17.97;100.00;95146.75;638714;212;31731;-71
2022/08/26 01:19:23;;;;;;;3.15;2.25;;;16.30;1.40;;;18.00;100.00;95143.53;645753;212;31626;-71
2022/08/26 01:22:05;;;;;;;2.90;2.58;;;16.20;1.40;;;17.86;100.00;95138.45;645851;216;31556;-71
2022/08/26 01:27:21;;;;;;;5.15;2.70;;;16.20;1.40;;;17.76;100.00;95138.73;644966;216;31552;-71
2022/08/26 01:30:03;;;;;;;2.97;2.00;;;16.20;1.40;;;17.76;100.00;95146.22;648072;216;31827;-71
2022/08/26 01:32:44;;;;;;;2.65;2.15;;;16.20;1.40;;;17.78;100.00;95137.91;647590;212;32773;-71
2022/08/26 01:35:51;;;;;;;6.12;2.42;;;16.20;1.40;;;17.72;100.00;95137.87;647607;212;31967;-74
2022/08/26 01:38:36;;;;;;;2.83;2.42;;;16.20;1.40;;;17.75;100.00;95137.62;645505;213;31613;-71
2022/08/26 01:41:18;;;;;;;3.33;2.80;;;16.20;1.40;;;17.71;100.00;95137.95;647139;216;31529;-72
2022/08/26 01:44:03;;;;;;;2.80;2.40;;;16.10;1.40;;;17.66;100.00;95141.06;646590;216;32422;-71
2022/08/26 01:46:44;;;;;;;2.55;2.35;;;16.00;1.40;;;17.61;100.00;95140.00;619047;226;31861;-71
2022/08/26 01:49:26;;;;;;;3.80;2.90;;;15.90;1.40;;;17.65;100.00;95138.77;646189;212;32513;-71
2022/08/26 01:52:07;;;;;;;3.42;3.10;;;15.90;1.40;;;17.65;100.00;95141.19;648176;216;31569;-70
2022/08/26 01:54:52;;;;;;;7.68;4.10;;;15.90;1.40;;;17.55;100.00;95145.14;647240;216;32091;-71
2022/08/26 01:57:34;;;;;;;4.20;2.15;;;15.90;1.40;;;17.51;100.00;95143.83;646091;216;31608;-71
2022/08/26 02:00:16;;;;;;;17.45;2.37;;;15.80;1.40;;;17.51;100.00;95145.39;647531;216;31536;-71
2022/08/26 02:05:45;;;;;;;2.97;2.78;;;15.80;1.40;;;17.46;100.00;95138.29;646682;216;31582;-71
2022/08/26 02:08:38;;;;;;;4.55;2.70;;;15.80;1.40;;;17.49;100.00;95141.73;645629;212;31649;-71
2022/08/26 02:11:20;;;;;;;3.33;2.40;;;15.70;1.40;;;17.45;100.00;95141.70;646476;216;31536;-73
2022/08/26 02:14:03;;;;;;;7.62;3.72;;;15.70;1.40;;;17.37;100.00;95137.80;619443;226;31863;-71
2022/08/26 02:16:45;;;;;;;4.25;2.90;;;15.70;1.40;;;17.37;100.00;95133.06;635905;216;32591;-71
2022/08/26 02:19:27;;;;;;;5.60;3.10;;;15.60;1.40;;;17.33;100.00;95136.35;645160;216;31597;-72
2022/08/26 02:22:10;;;;;;;3.50;3.20;;;15.60;1.40;;;17.40;100.00;95135.08;647086;212;31586;-71
2022/08/26 02:24:52;;;;;;;2.50;2.22;;;15.60;1.40;;;17.31;100.00;95141.73;646075;216;31720;-71
2022/08/26 02:27:33;;;;;;;2.85;1.65;;;15.50;1.40;;;17.29;100.00;95135.42;646752;216;31587;-71
2022/08/26 02:30:15;;;;;;;3.97;2.25;;;15.40;1.40;;;17.27;100.00;95143.56;646557;216;31538;-71
2022/08/26 02:33:02;;;;;;;3.22;2.33;;;15.30;1.40;;;17.01;100.00;95146.41;646680;216;32439;-71
2022/08/26 02:35:51;;;;;;;4.07;2.42;;;15.30;1.40;;;16.96;100.00;95148.66;646520;216;42191;-71
2022/08/26 02:38:32;;;;;;;2.95;2.75;;;15.30;1.40;;;16.90;100.00;95142.62;645279;212;33574;-71
2022/08/26 02:41:14;;;;;;;6.37;3.22;;;15.30;1.40;;;16.93;100.00;95136.05;647153;216;31549;-72
2022/08/26 02:43:56;;;;;;;2.45;2.25;;;15.30;1.40;;;17.00;100.00;95134.41;619764;226;31870;-72
2022/08/26 02:46:37;;;;;;;6.25;2.50;;;15.30;1.40;;;17.04;100.00;95136.10;647459;216;32176;-71
2022/08/26 02:49:19;;;;;;;3.12;1.62;;;15.40;1.40;;;16.98;100.00;95135.15;619014;226;31936;-71
2022/08/26 02:52:04;;;;;;;12.32;3.87;;;15.40;1.40;;;17.09;100.00;95135.49;618805;226;31931;-72
2022/08/26 02:54:46;;;;;;;3.33;2.50;;;15.60;1.40;;;17.12;100.00;95136.27;645776;216;31515;-71
2022/08/26 02:57:27;;;;;;;3.05;2.50;;;15.60;1.40;;;17.13;100.00;95135.77;647248;216;31537;-71
2022/08/26 03:00:10;;;;;;;3.10;2.10;;;15.60;1.40;;;17.18;100.00;95140.05;646446;216;32156;-71
2022/08/26 03:02:52;;;;;;;3.55;2.45;;;15.60;1.40;;;17.21;100.00;95137.42;619608;226;31816;-71
2022/08/26 03:05:36;;;;;;;3.20;2.03;;;15.50;1.40;;;17.14;100.00;95139.97;631202;221;32321;-71
2022/08/26 03:08:18;;;;;;;5.50;2.87;;;15.50;1.40;;;17.17;100.00;95138.61;646587;216;31539;-71
2022/08/26 03:13:35;;;;;;;3.60;2.58;;;15.50;1.40;;;17.20;100.00;95135.16;647755;216;31600;-71
2022/08/26 03:16:16;;;;;;;3.62;2.45;;;15.50;1.40;;;17.17;100.00;95133.97;639282;216;31920;-71
2022/08/26 03:18:57;;;;;;;2.33;2.08;;;15.50;1.40;;;17.21;100.00;95134.55;646315;216;31575;-71
2022/08/26 03:21:39;;;;;;;2.67;2.47;;;15.50;1.40;;;17.16;100.00;95132.91;646804;216;31542;-71
2022/08/26 03:24:21;;;;;;;2.85;2.55;;;15.50;1.40;;;17.15;100.00;95128.91;647606;216;31938;-71
2022/08/26 03:27:03;;;;;;;3.12;2.17;;;15.40;1.40;;;17.03;100.00;95130.67;645970;212;31567;-71
2022/08/26 03:32:31;;;;;;;3.97;3.28;;;15.20;1.40;;;16.80;100.00;95131.38;646168;216;32183;-71
2022/08/26 03:35:51;;;;;;;3.47;2.30;;;15.10;1.40;;;16.90;100.00;95133.38;647034;216;31658;-71
2022/08/26 03:38:32;;;;;;;3.75;2.12;;;15.20;1.40;;;16.96;100.00;95133.88;647059;212;31547;-71
2022/08/26 03:41:14;;;;;;;2.67;1.70;;;15.20;1.40;;;16.85;100.00;95137.80;647878;216;31598;-71
2022/08/26 03:43:56;;;;;;;2.60;2.40;;;15.20;1.40;;;16.94;100.00;95135.39;646323;216;31588;-71
2022/08/26 03:46:38;;;;;;;2.50;2.30;;;15.30;1.40;;;16.86;100.00;95130.29;646769;212;31532;-71
2022/08/26 03:49:20;;;;;;;3.33;3.03;;;15.20;1.40;;;16.87;100.00;95128.11;646966;216;31588;-72
2022/08/26 03:52:02;;;;;;;3.20;1.98;;;15.30;1.40;;;16.88;100.00;95126.31;646315;212;31978;-71
2022/08/26 03:54:43;;;;;;;3.60;2.25;;;15.20;1.40;;;16.89;100.00;95127.79;647285;216;31535;-72
2022/08/26 03:57:25;;;;;;;4.45;3.20;;;15.20;1.40;;;16.91;100.00;95126.19;646598;216;31533;-71
2022/08/26 04:00:08;;;;;;;2.97;2.67;;;15.20;1.40;;;16.97;100.00;95125.90;646638;216;31770;-71
2022/08/26 04:02:50;;;;;;;2.60;2.40;;;15.30;1.40;;;16.97;100.00;95123.31;645870;216;31492;-71
2022/08/26 04:05:31;;;;;;;4.55;3.00;;;15.30;1.40;;;17.00;100.00;95121.18;646885;216;31542;-71
2022/08/26 04:08:13;;;;;;;5.93;2.50;;;15.20;1.40;;;16.96;100.00;95117.48;646111;216;31562;-71
2022/08/26 04:10:55;;;;;;;4.18;2.17;;;15.20;1.40;;;16.97;100.00;95121.47;619170;225;32184;-71
2022/08/26 04:13:37;;;;;;;3.65;2.78;;;15.20;1.40;;;16.91;100.00;95121.27;619273;225;31861;-71
2022/08/26 04:16:18;;;;;;;3.30;2.37;;;15.20;1.40;;;16.89;100.00;95122.03;647284;216;32354;-71
2022/08/26 04:19:02;;;;;;;2.60;2.25;;;15.20;1.40;;;16.86;100.00;95122.03;645864;215;32205;-71
2022/08/26 04:24:21;;;;;;;4.18;2.78;;;15.30;1.40;;;16.75;100.00;95121.72;646605;216;31797;-71
2022/08/26 04:27:03;;;;;;;4.25;3.47;;;15.20;1.40;;;16.67;100.00;95119.20;646250;216;31909;-71
2022/08/26 04:29:45;;;;;;;11.70;2.60;;;15.20;1.40;;;16.71;100.00;95122.58;618027;225;31937;-71
2022/08/26 04:32:26;;;;;;;3.20;2.78;;;15.20;1.40;;;16.73;100.00;95125.95;645876;212;31724;-71
2022/08/26 04:35:51;;;;;;;2.42;2.05;;;15.20;1.40;;;16.68;100.00;95124.95;646396;216;31573;-71
2022/08/26 04:38:33;;;;;;;4.82;3.97;;;15.20;1.40;;;16.87;100.00;95121.95;647188;216;31593;-72
2022/08/26 04:41:15;;;;;;;4.07;2.42;;;15.40;1.40;;;16.99;100.00;95120.23;646544;216;31507;-71
2022/08/26 04:43:56;;;;;;;5.15;2.17;;;15.60;1.40;;;17.06;100.00;95122.22;619984;226;32050;-71
2022/08/26 04:46:38;;;;;;;4.93;3.62;;;15.70;1.40;;;17.16;100.00;95116.50;647117;212;31599;-71
2022/08/26 04:49:20;;;;;;;3.50;3.20;;;15.80;1.40;;;17.25;100.00;95118.28;645903;212;31535;-71
2022/08/26 04:52:02;;;;;;;10.48;3.50;;;15.80;1.40;;;17.32;100.00;95117.77;646599;216;31588;-71
2022/08/26 04:54:43;;;;;;;3.97;3.33;;;15.80;1.40;;;17.41;100.00;95121.39;646248;216;31542;-71
2022/08/26 04:57:25;;;;;;;5.80;3.53;;;15.90;1.40;;;17.51;100.00;95124.46;645923;212;31786;-71
2022/08/26 05:00:11;;;;;;;4.25;3.05;;;16.00;1.40;;;17.60;100.00;95120.75;645821;216;42215;-71
2022/08/26 05:02:54;;;;;;;2.62;2.28;;;16.10;1.40;;;17.67;100.00;95120.12;647186;213;31546;-71
2022/08/26 05:05:35;;;;;;;3.30;2.80;;;16.20;1.40;;;17.83;100.00;95122.42;645788;216;31517;-71
2022/08/26 05:08:17;;;;;;;4.22;2.60;;;16.30;1.40;;;17.92;100.00;95126.48;647831;216;31620;-72
2022/08/26 05:11:02;;;;;;;2.12;1.80;;;16.30;1.40;;;17.97;100.00;95122.52;645322;212;32289;-72
2022/08/26 05:13:43;;;;;;;8.40;3.80;;;16.40;1.40;;;17.98;100.00;95122.02;618161;222;31983;-72
2022/08/26 05:16:25;;;;;;;8.57;2.60;;;16.50;1.40;;;18.05;100.00;95125.32;638043;216;31724;-71
2022/08/26 05:19:10;;;;;;;3.50;2.35;;;16.50;1.40;;;18.10;100.00;95134.20;645764;216;31587;-71
2022/08/26 05:21:51;;;;;;;3.97;2.80;;;16.60;1.40;;;18.12;100.00;95134.73;646044;216;31546;-72
2022/08/26 05:24:33;;;;;;;3.80;2.42;;;16.70;1.40;;;18.21;100.00;95138.20;646642;216;31570;-72
2022/08/26 05:27:15;;;;;;;6.12;3.37;;;16.80;1.40;;;18.26;100.00;95138.95;645866;216;31528;-71
2022/08/26 05:30:00;;;;;;;4.10;3.58;;;16.80;1.40;;;18.39;100.00;95140.69;644475;216;31664;-71
2022/08/26 05:32:41;;;;;;;4.00;3.17;;;16.90;1.40;;;18.68;100.00;95144.28;646696;216;31949;-72
2022/08/26 05:35:51;;;;;;;3.85;3.20;;;17.00;1.40;;;18.75;100.00;95146.59;645826;216;31606;-71
2022/08/26 05:38:34;;;;;;;2.67;2.00;;;17.10;1.40;;;18.83;100.00;95147.70;647498;212;31611;-72
2022/08/26 05:41:16;;;;;;;2.28;2.08;;;17.20;1.40;;;18.82;100.00;95148.44;646042;216;31549;-72
2022/08/26 05:44:00;;;;;;;2.95;2.70;;;17.30;1.40;;;18.86;100.00;95148.58;646073;213;31646;-71
2022/08/26 05:46:43;;;;;;;3.03;2.72;;;17.30;1.40;;;18.91;100.00;95151.98;645601;216;31523;-72
2022/08/26 05:49:27;;;;;;;7.10;4.20;;;17.40;1.40;;;18.99;100.00;95152.87;646737;216;31511;-72
2022/08/26 05:52:08;;;;;;;6.12;2.90;;;17.40;1.40;;;19.08;100.00;95155.21;645110;216;31627;-72
2022/08/26 05:54:51;;;;;;;4.93;2.75;;;17.50;1.40;;;19.21;100.00;95158.95;646619;216;31602;-72
2022/08/26 05:57:32;;;;;;;4.72;2.28;;;17.60;1.40;;;19.24;100.00;95157.36;647148;212;31537;-72
2022/08/26 06:00:14;;;;;;;4.53;3.22;;;17.70;1.40;;;19.35;100.00;95162.22;646314;216;42174;-72
2022/08/26 06:02:56;;;;;;;3.83;2.80;;;17.70;1.40;;;19.50;100.00;95160.51;618569;226;43216;-72
2022/08/26 06:05:38;;;;;;;6.55;2.75;;;17.90;1.40;;;19.66;100.00;95159.45;646885;212;42172;-70
2022/08/26 06:08:20;;;;;;;4.72;3.22;;;18.00;1.40;;;19.87;100.00;95164.00;645762;216;31587;-70
2022/08/26 06:11:02;;;;;;;3.10;2.22;;;18.20;1.40;;;20.04;100.00;95165.56;646045;216;32271;-70
2022/08/26 06:13:43;;;;;;;5.30;2.60;;;18.30;1.40;;;20.35;100.00;95160.34;646859;212;31836;-71
2022/08/26 06:16:25;;;;;;;4.22;2.40;;;18.60;1.40;;;20.55;100.00;95167.25;636966;216;31697;-70
2022/08/26 06:19:42;;;;;;;4.05;2.55;;;18.70;1.40;;;20.76;100.00;95169.09;647088;216;31585;-70
2022/08/26 06:28:02;;;;;;;4.53;3.47;;;19.00;1.40;;;21.14;100.00;95166.88;647395;216;31580;-70
2022/08/26 06:30:43;;;;;;;5.32;2.10;;;19.10;1.40;;;21.23;100.00;95166.28;644979;212;31654;-70
2022/08/26 06:35:54;;;;;;;10.97;3.47;;;19.00;1.40;;;21.03;100.00;95169.13;647618;212;31810;-70
2022/08/26 06:38:36;;;;;;;3.28;3.08;;;19.00;1.40;;;20.98;100.00;95167.34;641879;216;31734;-70
2022/08/26 06:41:19;;;;;;;6.72;3.03;;;18.90;1.40;;;21.37;100.00;95171.23;646140;216;31621;-70
2022/08/26 06:44:00;;;;;;;4.47;3.33;;;19.00;1.40;;;21.48;100.00;95173.38;646721;212;31534;-70
2022/08/26 06:46:45;;;;;;;4.20;2.78;;;19.20;1.40;;;21.20;100.00;95171.88;644573;216;32119;-71
2022/08/26 06:49:26;;;;;;;5.40;3.60;;;19.00;1.40;;;21.22;100.00;95176.34;646964;216;31545;-70
2022/08/26 06:52:12;;;;;;;3.17;2.87;;;18.90;1.40;;;21.07;100.00;95177.73;646641;216;32214;-70
2022/08/26 06:54:55;;;;;;;5.30;2.95;;;18.90;1.40;;;21.15;100.00;95181.42;644898;212;42201;-70
2022/08/26 06:57:37;;;;;;;2.78;2.20;;;19.00;1.40;;;21.05;100.00;95178.91;645066;215;31773;-70
2022/08/26 07:00:20;;;;;;;3.40;3.10;;;19.00;1.40;;;20.72;100.00;95180.75;618241;226;31869;-70
2022/08/26 07:03:02;;;;;;;5.45;2.78;;;18.80;1.40;;;21.14;100.00;95175.59;618227;225;31945;-70
2022/08/26 07:05:43;;;;;;;4.80;2.87;;;19.20;1.40;;;21.09;100.00;95180.95;645900;216;31610;-70
2022/08/26 07:08:25;;;;;;;3.28;2.33;;;19.10;1.40;;;20.99;100.00;95182.75;646469;216;31962;-70
2022/08/26 07:11:08;;;;;;;3.87;3.47;;;19.10;1.40;;;21.31;100.00;95176.52;645566;212;31744;-70
2022/08/26 07:13:50;;;;;;;3.40;3.10;;;19.30;1.40;;;21.00;100.00;95185.64;645626;216;35127;-70
2022/08/26 07:16:32;;;;;;;3.83;2.50;;;19.20;1.40;;;21.12;100.00;95186.26;637723;216;31835;-70
2022/08/26 07:19:18;;;;;;;4.97;3.50;;;19.30;1.40;;;21.48;100.00;95188.36;645893;213;31600;-70
2022/08/26 07:22:00;;;;;;;2.97;2.70;;;19.70;1.40;;;21.74;100.00;95187.06;647165;212;32199;-71
2022/08/26 07:24:42;;;;;;;2.78;2.17;;;19.70;1.40;;;22.07;100.00;95190.26;646868;212;32191;-70
2022/08/26 07:27:23;;;;;;;3.12;2.60;;;20.10;1.40;;;21.89;100.00;95193.82;645876;216;34551;-70
2022/08/26 07:30:08;;;;;;;3.25;2.60;;;19.90;1.40;;;22.15;100.00;95199.72;647026;212;32154;-70
2022/08/26 07:32:51;;;;;;;3.40;3.10;;;20.00;1.40;;;22.44;100.00;95201.38;646769;212;31676;-70
2022/08/26 07:35:51;;;;;;;3.13;2.33;;;20.30;1.40;;;22.56;100.00;95199.87;645999;212;31648;-70
2022/08/26 07:38:33;;;;;;;6.70;3.72;;;20.40;1.40;;;22.57;100.00;95202.70;647104;216;31687;-70
2022/08/26 07:41:15;;;;;;;3.43;2.63;;;20.30;1.40;;;22.66;100.00;95204.02;646602;212;31659;-71
2022/08/26 07:43:56;;;;;;;3.78;3.30;;;20.40;1.40;;;22.87;100.00;95202.49;646520;216;31555;-70
2022/08/26 07:46:38;;;;;;;3.57;3.00;;;20.50;1.40;;;22.98;100.00;95201.77;646699;216;31720;-70
2022/08/26 07:49:20;;;;;;;3.30;2.90;;;20.60;1.40;;;22.82;100.00;95203.56;646984;216;32122;-70
2022/08/26 07:52:02;;;;;;;5.70;3.10;;;20.60;1.40;;;22.91;100.00;95202.38;639618;214;31955;-70
2022/08/26 07:54:44;;;;;;;6.28;2.45;;;20.70;1.40;;;22.97;100.00;95196.44;619008;222;31963;-70
2022/08/26 07:57:26;;;;;;;3.40;3.10;;;20.80;1.40;;;22.83;100.00;95201.25;646525;216;42330;-70
2022/08/26 08:00:10;;;;;;;5.55;2.22;;;20.70;1.40;;;22.81;100.00;95204.78;646138;216;31532;-70
2022/08/26 08:02:51;;;;;;;2.90;2.60;;;20.80;1.40;;;23.07;100.00;95202.49;646042;216;32341;-70
2022/08/26 08:05:35;;;;;;;4.33;2.57;;;20.90;1.40;;;23.19;100.00;95203.47;646111;216;31571;-70
2022/08/26 08:08:15;;;;;;;4.90;3.03;;;20.90;1.40;;;23.26;100.00;95203.41;646671;212;31541;-70
2022/08/26 08:11:00;;;;;;;2.70;2.30;;;21.00;1.40;;;23.24;100.00;95205.52;646367;216;42180;-70
2022/08/26 08:13:41;;;;;;;2.80;2.60;;;21.00;1.40;;;23.51;100.00;95205.86;646178;216;42275;-70
2022/08/26 08:16:23;;;;;;;3.20;2.60;;;21.10;1.40;;;23.59;100.00;95206.33;647399;216;35999;-70
2022/08/26 08:19:05;;;;;;;4.32;3.30;;;21.10;1.40;;;23.46;100.00;95198.63;646590;216;31725;-70
2022/08/26 08:21:46;;;;;;;4.12;2.72;;;21.10;1.40;;;23.44;100.00;95197.59;645981;216;31562;-70
2022/08/26 08:24:28;;;;;;;3.30;2.23;;;21.20;1.40;;;23.78;100.00;95199.98;646341;216;31565;-70
2022/08/26 08:27:10;;;;;;;2.50;2.30;;;21.30;1.40;;;23.81;100.00;95202.51;646383;212;31607;-70
2022/08/26 08:29:54;;;;;;;4.10;3.22;;;21.30;1.40;;;23.93;100.00;95198.36;646564;216;31562;-69
2022/08/26 08:32:37;;;;;;;3.08;2.78;;;21.30;1.40;;;23.82;100.00;95198.66;647010;216;42981;-70
2022/08/26 08:38:25;;;;;;;3.33;2.50;;;21.40;1.40;;;23.95;100.00;95202.66;618973;226;43172;-70
2022/08/26 08:41:08;;;;;;;4.97;3.10;;;21.40;1.40;;;23.99;100.00;95200.77;646425;216;31591;-70
2022/08/26 08:43:49;;;;;;;4.20;2.97;;;21.50;1.40;;;24.16;100.00;95198.23;646738;216;31821;-70
2022/08/26 08:46:33;;;;;;;3.30;3.00;;;21.60;1.40;;;24.22;100.00;95197.44;646466;216;31564;-71
2022/08/26 08:49:15;;;;;;;3.40;2.60;;;21.70;1.40;;;24.28;100.00;95196.05;647050;216;31587;-71
2022/08/26 08:52:01;;;;;;;2.90;2.70;;;21.70;1.40;;;24.45;100.00;95198.22;646710;212;42783;-70
2022/08/26 08:54:45;;;;;;;3.17;2.87;;;21.90;1.40;;;24.50;100.00;95196.52;646350;216;31565;-71
2022/08/26 08:57:28;;;;;;;3.10;2.80;;;22.00;1.40;;;24.67;100.00;95199.05;646244;216;31553;-71
2022/08/26 09:00:11;;;;;;;3.90;2.83;;;22.10;1.40;;;24.99;100.00;95198.85;646396;212;42236;-71
2022/08/26 09:02:52;;;;;;;5.20;2.97;;;22.20;1.40;;;25.21;100.00;95195.16;645952;212;31633;-70
2022/08/26 09:05:40;;;;;;;2.92;2.62;;;22.60;1.40;;;25.32;100.00;95196.49;620247;222;32071;-71
2022/08/26 09:08:21;;;;;;;3.20;2.90;;;22.70;1.40;;;25.47;100.00;95198.27;645547;216;31950;-70
2022/08/26 09:11:03;;;;;;;4.45;3.08;;;22.90;1.40;;;25.60;100.00;95196.02;646775;216;31984;-70
2022/08/26 09:13:44;;;;;;;6.43;2.80;;;22.70;1.40;;;25.60;100.00;95197.45;619863;226;31914;-71
2022/08/26 09:16:50;;;;;;;3.03;2.70;;;22.80;1.40;;;25.62;100.00;95199.52;636610;216;31834;-71
2022/08/26 09:19:43;;;;;;;3.53;2.60;;;23.10;1.40;;;25.83;100.00;95197.11;646345;216;31615;-71
2022/08/26 09:22:28;;;;;;;4.00;3.00;;;23.10;1.40;;;25.05;100.00;95202.84;644436;216;34014;-70
2022/08/26 09:25:09;;;;;;;3.15;2.95;;;22.60;1.40;;;24.86;100.00;95202.03;647172;216;31958;-71
2022/08/26 09:27:51;;;;;;;3.75;3.45;;;22.40;1.40;;;24.94;100.00;95202.80;647155;216;31568;-70
2022/08/26 09:30:33;;;;;;;2.97;2.78;;;22.30;1.40;;;24.87;100.00;95202.06;646266;216;31579;-71
2022/08/26 09:35:53;;;;;;;3.90;3.50;;;22.50;1.40;;;25.09;100.00;95199.42;646954;216;42241;-71
2022/08/26 09:38:33;;;;;;;2.92;2.62;;;22.90;1.40;;;25.24;100.00;95192.70;646870;216;31657;-70
2022/08/26 09:41:23;;;;;;;3.50;3.20;;;23.10;1.40;;;25.60;100.00;95194.35;645993;216;32175;-71
2022/08/26 09:46:43;;;;;;;3.30;3.00;;;24.20;1.40;;;26.10;99.81;95187.30;645890;216;31621;-71
2022/08/26 09:49:27;;;;;;;4.93;3.47;;;23.60;1.40;;;26.00;100.00;95183.91;646124;216;31574;-71
2022/08/26 09:52:25;;;;;;;3.80;3.40;;;23.70;1.40;;;26.89;98.19;95176.21;618296;225;31888;-71
2022/08/26 09:55:15;;;;;;;3.08;2.78;;;24.90;1.40;;;27.45;97.39;95167.80;618240;223;32036;-71
2022/08/26 09:57:56;;;;;;;3.20;2.90;;;25.00;1.40;;;27.48;92.17;95164.47;646443;216;32247;-70
2022/08/26 10:00:41;;;;;;;3.42;3.12;;;25.20;1.40;;;28.57;92.03;95165.94;645924;216;32047;-71
2022/08/26 10:03:25;;;;;;;3.05;2.85;;;26.50;1.40;;;29.50;86.33;95158.52;646278;216;32242;-70
2022/08/26 10:06:22;;;;;;;6.30;3.50;;;27.20;1.40;;;29.44;81.06;95157.52;646419;216;31579;-70
2022/08/26 10:09:04;;;;;;;5.35;3.78;;;27.30;1.40;;;28.64;82.77;95154.47;618942;222;31912;-71
2022/08/26 10:11:46;;;;;;;3.80;3.50;;;26.50;1.40;;;28.83;83.78;95148.80;645722;212;32213;-71
2022/08/26 10:14:31;;;;;;;4.03;3.40;;;26.00;1.40;;;28.76;85.29;95146.14;618705;222;31926;-70
2022/08/26 10:17:17;;;;;;;3.75;3.45;;;26.70;1.40;;;30.08;78.63;95138.68;633393;212;31903;-72
2022/08/26 10:20:21;;;;;;;4.60;3.45;;;27.20;1.40;;;31.19;72.76;95131.47;646781;216;31695;-71
2022/08/26 10:23:08;;;;;;;4.45;3.25;;;28.40;1.40;;;31.39;75.80;95132.18;646793;212;32137;-71
2022/08/26 10:26:32;;;;;;;4.30;3.22;;;28.30;1.40;;;31.47;71.61;95126.99;645889;212;32148;-73
2022/08/26 10:29:15;;;;;;;4.70;3.00;;;29.30;1.40;;;32.42;68.85;95123.12;619625;222;32163;-71
2022/08/26 10:31:56;;;;;;;2.95;2.75;;;29.80;1.40;;;32.14;66.03;95118.92;647443;216;42312;-70
2022/08/26 10:35:53;;;;;;;3.22;2.92;;;30.40;1.40;;;34.57;64.46;95108.86;645638;212;32178;-72
2022/08/26 10:38:35;;;;;;;3.70;3.40;;;31.20;1.40;;;34.50;60.71;95103.78;646919;216;31692;-71
2022/08/26 10:41:16;;;;;;;3.37;2.87;;;31.30;1.40;;;34.51;57.23;95103.92;645461;216;31802;-72
2022/08/26 10:43:59;;;;;;;6.60;4.10;;;31.40;1.40;;;33.24;64.32;95103.68;647159;216;31699;-71
2022/08/26 10:46:51;;;;;;;4.82;3.92;;;29.30;1.40;;;33.69;62.92;95103.48;646304;216;31821;-71
2022/08/26 10:49:32;;;;;;;5.18;3.12;;;30.60;1.40;;;35.59;55.49;95093.51;646941;212;31684;-71
2022/08/26 10:52:18;;;;;;;4.37;3.97;;;33.70;1.40;;;35.45;53.95;95090.65;646527;213;31568;-72
2022/08/26 10:55:06;;;;;;;3.95;2.78;;;33.20;1.40;;;38.32;51.92;95081.02;646187;212;31558;-71
2022/08/26 11:03:31;;;;;;;3.47;2.72;;;31.70;1.40;;;35.30;54.57;95078.34;645454;216;31574;-72
2022/08/26 11:06:26;;;;;;;5.03;3.40;;;32.50;1.40;;;39.02;45.71;95067.39;647251;216;31653;-72
2022/08/26 11:09:07;;;;;;;5.33;3.60;;;35.50;1.40;;;39.04;47.98;95063.63;646682;216;31586;-72
2022/08/26 11:11:50;;;;;;;5.20;3.20;;;35.50;1.40;;;39.92;46.62;95057.07;645316;216;31594;-72
2022/08/26 11:17:06;;;;;;;3.37;3.07;;;36.50;1.40;;;42.91;41.08;95046.66;634889;212;31727;-71
2022/08/26 11:19:58;;;;;;;6.30;3.50;;;38.40;1.40;;;41.62;39.46;95050.20;645930;216;31622;-72
2022/08/26 11:22:40;;;;;;;3.87;3.10;;;36.90;1.40;;;42.44;37.97;95043.11;646420;216;31893;-72
2022/08/26 11:25:24;;;;;;;9.57;3.20;;;36.90;1.40;;;42.50;37.30;95040.43;645803;216;31954;-72
2022/08/26 11:28:06;;;;;;;4.33;2.70;;;37.80;1.40;;;43.08;37.60;95041.05;645473;216;31647;-72
2022/08/26 11:30:48;;;;;;;3.50;3.20;;;37.20;1.40;;;44.32;36.07;95032.11;646535;216;42555;-73
2022/08/26 11:35:51;;;;;;;3.58;3.12;;;38.50;1.40;;;43.03;35.19;95031.64;646644;216;32756;-71
2022/08/26 11:38:33;;;;;;;3.20;2.90;;;38.90;1.40;;;44.43;34.90;95027.24;648046;216;31586;-72
2022/08/26 11:41:14;;;;;;;4.43;3.00;;;38.40;1.40;;;44.49;35.26;95026.99;645759;216;31608;-70
2022/08/26 11:43:56;;;;;;;4.60;3.03;;;38.40;1.40;;;42.65;33.00;95030.47;645340;212;31976;-70
2022/08/26 11:46:38;;;;;;;3.05;2.58;;;36.30;1.40;;;36.53;39.90;95038.76;646616;216;31551;-72
2022/08/26 11:49:19;;;;;;;3.50;3.20;;;31.70;1.40;;;38.05;40.81;95030.40;645769;216;31608;-72
2022/08/26 11:52:07;;;;;;;4.68;2.90;;;34.70;1.40;;;36.92;41.38;95031.59;646419;216;31610;-72
2022/08/26 11:57:23;;;;;;;4.13;2.93;;;32.20;1.40;;;36.88;41.50;95026.42;644811;216;31535;-71
2022/08/26 12:00:08;;;;;;;3.42;3.10;;;33.80;1.40;;;39.42;37.11;95011.25;646684;216;31634;-71
2022/08/26 12:02:50;;;;;;;3.80;3.40;;;35.30;1.40;;;41.63;37.13;95006.14;646020;212;32119;-71
2022/08/26 12:05:32;;;;;;;2.85;2.55;;;36.70;1.40;;;43.36;33.93;95000.08;645908;212;31607;-71
2022/08/26 12:08:15;;;;;;;4.40;2.70;;;37.80;1.40;;;41.20;36.75;95002.36;647807;216;31667;-72
2022/08/26 12:11:04;;;;;;;4.07;2.80;;;36.80;1.40;;;44.27;33.91;94997.51;646724;216;42171;-72
2022/08/26 12:13:45;;;;;;;4.20;2.90;;;38.60;1.40;;;45.87;33.22;94991.17;645071;212;31583;-71
2022/08/26 12:16:27;;;;;;;4.62;2.90;;;39.20;1.40;;;44.39;33.31;94991.66;637141;216;31810;-73